Orlando, Florida
Traffic Map
Current Weather Conditions
Orlando, Florida
Clear
Clear
74°
Feels Like: 74°
Wind Chill: 74° Ceiling: Unl
Heat Index: 74° Visibility: 10mi
Dew Point: 73° Wind: 7mph
Humidity: 97% Direction: 50° (NE)
Pressure: 29.97in Gusts: 0mph
Raw Report DataKORL 300253Z 05006KT 10SM CLR 23/23 A2997 RMK AO2 SLP150 T02330228 53005
Traffic Incident Summary
Active as of:
Severity:
Category:
InformationThere was an issue retrieving the traffic information for this location. Please try a different location or try again shortly.
Advertisements
Track Severe Weather on mobile